sensor_id;sensor_type;location;lat;lon;timestamp;pressure;altitude;pressure_sealevel;temperature;humidity
13434;BME280;6789;47.678;9.158;2023-01-15T00:05:00;96019.31;;;8.62;83.78
13434;BME280;6789;47.678;9.158;2023-01-15T00:10:09;96008.00;;;8.68;83.19
13434;BME280;6789;47.678;9.158;2023-01-15T00:15:16;95994.78;;;8.74;83.16
13434;BME280;6789;47.678;9.158;2023-01-15T00:20:22;95988.63;;;8.80;82.73
13434;BME280;6789;47.678;9.158;2023-01-15T00:25:45;95976.78;;;8.89;81.47
13434;BME280;6789;47.678;9.158;2023-01-15T00:31:13;95967.31;;;9.00;79.70
13434;BME280;6789;47.678;9.158;2023-01-15T00:36:19;95959.44;;;9.11;77.81
13434;BME280;6789;47.678;9.158;2023-01-15T00:41:43;95974.00;;;9.35;75.86
13434;BME280;6789;47.678;9.158;2023-01-15T00:46:50;95970.84;;;9.33;77.26
13434;BME280;6789;47.678;9.158;2023-01-15T00:51:43;95960.81;;;9.30;78.12
13434;BME280;6789;47.678;9.158;2023-01-15T00:56:43;95963.72;;;9.45;76.21
13434;BME280;6789;47.678;9.158;2023-01-15T01:01:50;95967.75;;;9.52;75.97
13434;BME280;6789;47.678;9.158;2023-01-15T01:06:56;95970.06;;;9.49;75.65
13434;BME280;6789;47.678;9.158;2023-01-15T01:12:03;95966.50;;;9.55;73.12
13434;BME280;6789;47.678;9.158;2023-01-15T01:17:10;95967.78;;;9.69;71.44
13434;BME280;6789;47.678;9.158;2023-01-15T01:22:17;95957.41;;;9.74;71.55
13434;BME280;6789;47.678;9.158;2023-01-15T01:27:22;95939.53;;;9.71;72.14
13434;BME280;6789;47.678;9.158;2023-01-15T01:32:28;95940.66;;;9.75;72.75
13434;BME280;6789;47.678;9.158;2023-01-15T01:37:37;95926.22;;;9.72;72.14
13434;BME280;6789;47.678;9.158;2023-01-15T01:42:48;95930.66;;;9.72;72.60
13434;BME280;6789;47.678;9.158;2023-01-15T01:48:05;95923.75;;;9.66;73.02
13434;BME280;6789;47.678;9.158;2023-01-15T01:53:23;95918.75;;;9.64;73.80
13434;BME280;6789;47.678;9.158;2023-01-15T01:58:33;95926.38;;;9.66;74.76
13434;BME280;6789;47.678;9.158;2023-01-15T02:03:34;95907.00;;;9.67;74.26
13434;BME280;6789;47.678;9.158;2023-01-15T02:08:41;95911.63;;;9.76;75.01
13434;BME280;6789;47.678;9.158;2023-01-15T02:14:19;95889.66;;;9.61;77.64
13434;BME280;6789;47.678;9.158;2023-01-15T02:25:36;95881.53;;;9.46;79.63
13434;BME280;6789;47.678;9.158;2023-01-15T02:30:46;95861.56;;;9.40;79.38
13434;BME280;6789;47.678;9.158;2023-01-15T02:35:57;95851.84;;;9.35;80.69
13434;BME280;6789;47.678;9.158;2023-01-15T02:40:58;95853.72;;;9.40;81.45
13434;BME280;6789;47.678;9.158;2023-01-15T02:46:08;95865.63;;;9.31;82.88
13434;BME280;6789;47.678;9.158;2023-01-15T02:51:22;95837.47;;;9.22;83.52
13434;BME280;6789;47.678;9.158;2023-01-15T02:56:32;95833.59;;;9.24;81.72
13434;BME280;6789;47.678;9.158;2023-01-15T03:01:51;95842.41;;;9.34;81.72
13434;BME280;6789;47.678;9.158;2023-01-15T03:07:45;95837.06;;;9.46;80.67
13434;BME280;6789;47.678;9.158;2023-01-15T03:13:00;95848.00;;;9.26;82.19
13434;BME280;6789;47.678;9.158;2023-01-15T03:17:55;95841.75;;;9.11;84.20
13434;BME280;6789;47.678;9.158;2023-01-15T03:22:50;95821.75;;;9.05;85.71
13434;BME280;6789;47.678;9.158;2023-01-15T03:27:44;95816.13;;;8.97;88.04
13434;BME280;6789;47.678;9.158;2023-01-15T03:32:36;95807.59;;;9.01;88.56
13434;BME280;6789;47.678;9.158;2023-01-15T03:37:30;95793.16;;;8.99;89.29
13434;BME280;6789;47.678;9.158;2023-01-15T03:48:11;95778.66;;;8.91;87.01
13434;BME280;6789;47.678;9.158;2023-01-15T03:53:20;95778.25;;;8.99;86.35
13434;BME280;6789;47.678;9.158;2023-01-15T03:58:28;95779.22;;;8.93;87.64
13434;BME280;6789;47.678;9.158;2023-01-15T04:03:22;95773.66;;;8.90;88.38
13434;BME280;6789;47.678;9.158;2023-01-15T04:08:15;95773.19;;;8.93;87.96
13434;BME280;6789;47.678;9.158;2023-01-15T04:13:08;95779.84;;;9.00;87.90
13434;BME280;6789;47.678;9.158;2023-01-15T04:18:00;95778.19;;;9.11;88.31
13434;BME280;6789;47.678;9.158;2023-01-15T04:22:52;95778.41;;;9.09;89.84
13434;BME280;6789;47.678;9.158;2023-01-15T04:27:43;95787.31;;;9.08;92.26
13434;BME280;6789;47.678;9.158;2023-01-15T04:32:35;95785.72;;;9.07;94.36
13434;BME280;6789;47.678;9.158;2023-01-15T04:37:27;95785.72;;;9.07;96.19
13434;BME280;6789;47.678;9.158;2023-01-15T04:42:19;95764.81;;;9.07;98.00
13434;BME280;6789;47.678;9.158;2023-01-15T04:47:30;95758.94;;;9.00;100.00
13434;BME280;6789;47.678;9.158;2023-01-15T04:52:22;95765.50;;;9.03;100.00
13434;BME280;6789;47.678;9.158;2023-01-15T04:57:13;95745.84;;;9.00;100.00
13434;BME280;6789;47.678;9.158;2023-01-15T05:02:05;95739.69;;;9.06;100.00
13434;BME280;6789;47.678;9.158;2023-01-15T05:06:57;95736.75;;;9.03;100.00
13434;BME280;6789;47.678;9.158;2023-01-15T05:11:51;95746.41;;;9.02;100.00
13434;BME280;6789;47.678;9.158;2023-01-15T05:16:43;95754.34;;;9.07;100.00
13434;BME280;6789;47.678;9.158;2023-01-15T05:21:40;95769.28;;;9.12;100.00
13434;BME280;6789;47.678;9.158;2023-01-15T05:26:32;95757.75;;;9.08;100.00
13434;BME280;6789;47.678;9.158;2023-01-15T05:31:25;95753.94;;;8.99;100.00
13434;BME280;6789;47.678;9.158;2023-01-15T05:36:22;95745.84;;;9.00;100.00
13434;BME280;6789;47.678;9.158;2023-01-15T05:41:18;95731.28;;;9.04;100.00
13434;BME280;6789;47.678;9.158;2023-01-15T05:46:29;95736.03;;;9.07;100.00
13434;BME280;6789;47.678;9.158;2023-01-15T05:51:23;95731.97;;;9.00;100.00
13434;BME280;6789;47.678;9.158;2023-01-15T05:56:14;95744.13;;;8.89;100.00
13434;BME280;6789;47.678;9.158;2023-01-15T06:01:08;95744.03;;;8.84;100.00
13434;BME280;6789;47.678;9.158;2023-01-15T06:06:02;95749.88;;;8.91;100.00
13434;BME280;6789;47.678;9.158;2023-01-15T06:10:55;95731.84;;;8.90;100.00
13434;BME280;6789;47.678;9.158;2023-01-15T06:15:47;95721.84;;;8.87;100.00
13434;BME280;6789;47.678;9.158;2023-01-15T06:20:41;95725.81;;;8.89;100.00
13434;BME280;6789;47.678;9.158;2023-01-15T06:25:36;95733.34;;;8.86;100.00
13434;BME280;6789;47.678;9.158;2023-01-15T06:30:28;95733.03;;;8.82;100.00
13434;BME280;6789;47.678;9.158;2023-01-15T06:35:21;95737.13;;;8.78;100.00
13434;BME280;6789;47.678;9.158;2023-01-15T06:40:13;95731.38;;;8.76;100.00
13434;BME280;6789;47.678;9.158;2023-01-15T06:45:09;95712.03;;;8.77;100.00
13434;BME280;6789;47.678;9.158;2023-01-15T06:50:19;95710.84;;;8.68;100.00
13434;BME280;6789;47.678;9.158;2023-01-15T06:55:11;95714.09;;;8.59;100.00
13434;BME280;6789;47.678;9.158;2023-01-15T07:00:04;95703.22;;;8.51;100.00
13434;BME280;6789;47.678;9.158;2023-01-15T07:04:56;95692.59;;;8.41;100.00
13434;BME280;6789;47.678;9.158;2023-01-15T07:09:49;95688.81;;;8.48;100.00
13434;BME280;6789;47.678;9.158;2023-01-15T07:14:41;95678.69;;;8.35;100.00
13434;BME280;6789;47.678;9.158;2023-01-15T07:19:33;95670.97;;;8.29;100.00
13434;BME280;6789;47.678;9.158;2023-01-15T07:24:26;95657.13;;;8.28;100.00
13434;BME280;6789;47.678;9.158;2023-01-15T07:29:18;95635.94;;;8.25;100.00
13434;BME280;6789;47.678;9.158;2023-01-15T07:34:10;95647.88;;;8.37;100.00
13434;BME280;6789;47.678;9.158;2023-01-15T07:39:04;95639.41;;;8.30;100.00
13434;BME280;6789;47.678;9.158;2023-01-15T07:44:00;95640.69;;;8.28;100.00
13434;BME280;6789;47.678;9.158;2023-01-15T07:49:11;95624.16;;;8.39;100.00
13434;BME280;6789;47.678;9.158;2023-01-15T07:54:23;95614.72;;;8.38;100.00
13434;BME280;6789;47.678;9.158;2023-01-15T07:59:15;95625.81;;;8.45;100.00
13434;BME280;6789;47.678;9.158;2023-01-15T08:04:08;95633.84;;;8.59;100.00
13434;BME280;6789;47.678;9.158;2023-01-15T08:09:04;95638.88;;;8.77;100.00
13434;BME280;6789;47.678;9.158;2023-01-15T08:13:58;95643.81;;;8.95;100.00
13434;BME280;6789;47.678;9.158;2023-01-15T08:19:08;95661.16;;;9.01;100.00
13434;BME280;6789;47.678;9.158;2023-01-15T08:24:01;95681.91;;;9.08;100.00
13434;BME280;6789;47.678;9.158;2023-01-15T08:28:54;95674.63;;;8.93;100.00
13434;BME280;6789;47.678;9.158;2023-01-15T08:33:46;95682.88;;;9.02;100.00
13434;BME280;6789;47.678;9.158;2023-01-15T08:38:40;95697.59;;;9.08;100.00
13434;BME280;6789;47.678;9.158;2023-01-15T08:43:32;95706.44;;;9.23;100.00
13434;BME280;6789;47.678;9.158;2023-01-15T08:48:25;95712.41;;;9.99;100.00
13434;BME280;6789;47.678;9.158;2023-01-15T08:53:19;95714.78;;;10.22;100.00
13434;BME280;6789;47.678;9.158;2023-01-15T08:58:14;95733.28;;;10.15;99.56
13434;BME280;6789;47.678;9.158;2023-01-15T09:03:07;95759.19;;;10.12;96.98
13434;BME280;6789;47.678;9.158;2023-01-15T09:07:59;95756.34;;;10.13;96.66
13434;BME280;6789;47.678;9.158;2023-01-15T09:12:51;95760.81;;;9.96;95.29
13434;BME280;6789;47.678;9.158;2023-01-15T09:17:44;95789.72;;;10.01;94.62
13434;BME280;6789;47.678;9.158;2023-01-15T09:22:36;95803.47;;;9.92;94.81
13434;BME280;6789;47.678;9.158;2023-01-15T09:27:42;95812.25;;;9.86;95.84
13434;BME280;6789;47.678;9.158;2023-01-15T09:32:42;95826.56;;;9.79;96.76
13434;BME280;6789;47.678;9.158;2023-01-15T09:37:35;95861.94;;;9.65;97.73
13434;BME280;6789;47.678;9.158;2023-01-15T09:42:48;95866.78;;;9.40;99.49
13434;BME280;6789;47.678;9.158;2023-01-15T09:53:42;95901.97;;;9.16;97.83
13434;BME280;6789;47.678;9.158;2023-01-15T09:58:39;95921.50;;;8.97;98.43
13434;BME280;6789;47.678;9.158;2023-01-15T10:03:44;95932.50;;;8.71;100.00
13434;BME280;6789;47.678;9.158;2023-01-15T10:08:45;95940.38;;;8.60;100.00
13434;BME280;6789;47.678;9.158;2023-01-15T10:13:46;95943.69;;;8.55;100.00
13434;BME280;6789;47.678;9.158;2023-01-15T10:18:40;95970.53;;;8.40;100.00
13434;BME280;6789;47.678;9.158;2023-01-15T10:45:52;96028.78;;;7.77;100.00
13434;BME280;6789;47.678;9.158;2023-01-15T10:50:48;96041.81;;;7.65;100.00
13434;BME280;6789;47.678;9.158;2023-01-15T10:56:33;96068.81;;;7.41;100.00
13434;BME280;6789;47.678;9.158;2023-01-15T11:01:28;96088.69;;;7.42;100.00
13434;BME280;6789;47.678;9.158;2023-01-15T11:06:22;96098.63;;;7.34;100.00
13434;BME280;6789;47.678;9.158;2023-01-15T11:11:40;96107.25;;;7.16;100.00
13434;BME280;6789;47.678;9.158;2023-01-15T11:16:57;96134.91;;;7.00;100.00
13434;BME280;6789;47.678;9.158;2023-01-15T11:21:58;96142.19;;;6.73;100.00
13434;BME280;6789;47.678;9.158;2023-01-15T11:26:52;96158.41;;;6.51;100.00
13434;BME280;6789;47.678;9.158;2023-01-15T11:31:59;96182.97;;;6.37;100.00
13434;BME280;6789;47.678;9.158;2023-01-15T11:37:05;96202.47;;;6.28;100.00
13434;BME280;6789;47.678;9.158;2023-01-15T11:42:15;96224.75;;;6.18;100.00
13434;BME280;6789;47.678;9.158;2023-01-15T11:47:30;96238.84;;;6.04;100.00
13434;BME280;6789;47.678;9.158;2023-01-15T11:52:52;96257.38;;;5.76;100.00
13434;BME280;6789;47.678;9.158;2023-01-15T11:57:48;96273.81;;;5.58;100.00
13434;BME280;6789;47.678;9.158;2023-01-15T12:02:42;96276.22;;;5.46;100.00
13434;BME280;6789;47.678;9.158;2023-01-15T12:07:38;96291.84;;;5.40;100.00
13434;BME280;6789;47.678;9.158;2023-01-15T12:29:40;96328.66;;;4.98;100.00
13434;BME280;6789;47.678;9.158;2023-01-15T12:35:01;96324.66;;;4.89;100.00
13434;BME280;6789;47.678;9.158;2023-01-15T12:45:25;96329.06;;;4.89;100.00
13434;BME280;6789;47.678;9.158;2023-01-15T12:50:55;96346.84;;;4.85;100.00
13434;BME280;6789;47.678;9.158;2023-01-15T12:56:03;96347.81;;;4.84;100.00
13434;BME280;6789;47.678;9.158;2023-01-15T13:01:17;96351.41;;;4.83;100.00
13434;BME280;6789;47.678;9.158;2023-01-15T13:06:16;96342.63;;;4.84;100.00
13434;BME280;6789;47.678;9.158;2023-01-15T13:11:13;96346.25;;;4.90;100.00
13434;BME280;6789;47.678;9.158;2023-01-15T13:21:15;96342.03;;;4.76;100.00
13434;BME280;6789;47.678;9.158;2023-01-15T13:32:19;96344.59;;;4.63;100.00
13434;BME280;6789;47.678;9.158;2023-01-15T13:37:39;96354.38;;;4.54;100.00
13434;BME280;6789;47.678;9.158;2023-01-15T13:42:48;96356.34;;;4.46;100.00
13434;BME280;6789;47.678;9.158;2023-01-15T13:47:51;96362.56;;;4.64;100.00
13434;BME280;6789;47.678;9.158;2023-01-15T13:52:45;96381.75;;;4.70;100.00
13434;BME280;6789;47.678;9.158;2023-01-15T13:57:42;96392.72;;;4.65;100.00
13434;BME280;6789;47.678;9.158;2023-01-15T14:02:38;96396.75;;;4.74;100.00
13434;BME280;6789;47.678;9.158;2023-01-15T14:07:45;96394.38;;;4.79;100.00
13434;BME280;6789;47.678;9.158;2023-01-15T14:12:51;96400.78;;;4.96;100.00
13434;BME280;6789;47.678;9.158;2023-01-15T14:30:04;96401.16;;;4.93;100.00
13434;BME280;6789;47.678;9.158;2023-01-15T14:35:22;96432.91;;;4.82;100.00
13434;BME280;6789;47.678;9.158;2023-01-15T14:40:32;96430.72;;;4.79;100.00
13434;BME280;6789;47.678;9.158;2023-01-15T14:45:45;96435.56;;;4.89;100.00
13434;BME280;6789;47.678;9.158;2023-01-15T14:50:47;96441.13;;;4.86;100.00
13434;BME280;6789;47.678;9.158;2023-01-15T14:56:03;96430.53;;;4.87;100.00
13434;BME280;6789;47.678;9.158;2023-01-15T15:01:07;96431.56;;;4.86;100.00
13434;BME280;6789;47.678;9.158;2023-01-15T15:06:20;96429.38;;;4.96;100.00
13434;BME280;6789;47.678;9.158;2023-01-15T15:11:38;96429.38;;;4.96;100.00
13434;BME280;6789;47.678;9.158;2023-01-15T15:17:19;96428.75;;;4.94;100.00
13434;BME280;6789;47.678;9.158;2023-01-15T15:22:27;96438.94;;;4.89;99.48
13434;BME280;6789;47.678;9.158;2023-01-15T15:27:23;96444.34;;;4.94;99.64
13434;BME280;6789;47.678;9.158;2023-01-15T15:32:23;96445.94;;;4.95;99.81
13434;BME280;6789;47.678;9.158;2023-01-15T15:37:27;96437.94;;;4.90;99.43
13434;BME280;6789;47.678;9.158;2023-01-15T15:42:42;96437.75;;;4.92;99.28
13434;BME280;6789;47.678;9.158;2023-01-15T15:53:31;96434.88;;;4.67;100.00
13434;BME280;6789;47.678;9.158;2023-01-15T15:58:37;96424.88;;;4.58;100.00
13434;BME280;6789;47.678;9.158;2023-01-15T16:03:31;96427.44;;;4.51;100.00
13434;BME280;6789;47.678;9.158;2023-01-15T16:08:37;96428.34;;;4.37;100.00
13434;BME280;6789;47.678;9.158;2023-01-15T16:13:37;96425.91;;;4.23;100.00
13434;BME280;6789;47.678;9.158;2023-01-15T16:18:53;96425.84;;;4.10;100.00
13434;BME280;6789;47.678;9.158;2023-01-15T16:24:00;96417.47;;;4.08;100.00
13434;BME280;6789;47.678;9.158;2023-01-15T16:29:01;96406.78;;;3.90;100.00
13434;BME280;6789;47.678;9.158;2023-01-15T16:34:38;96409.94;;;3.86;100.00
13434;BME280;6789;47.678;9.158;2023-01-15T16:39:44;96406.47;;;3.72;100.00
13434;BME280;6789;47.678;9.158;2023-01-15T16:44:54;96404.81;;;3.65;100.00
13434;BME280;6789;47.678;9.158;2023-01-15T16:55:47;96402.13;;;3.52;100.00
13434;BME280;6789;47.678;9.158;2023-01-15T17:00:54;96415.28;;;3.51;100.00
13434;BME280;6789;47.678;9.158;2023-01-15T17:06:00;96422.28;;;3.50;100.00
13434;BME280;6789;47.678;9.158;2023-01-15T17:11:20;96424.66;;;3.52;100.00
13434;BME280;6789;47.678;9.158;2023-01-15T17:21:27;96428.13;;;3.38;100.00
13434;BME280;6789;47.678;9.158;2023-01-15T17:26:27;96432.47;;;3.31;100.00
13434;BME280;6789;47.678;9.158;2023-01-15T17:31:30;96419.69;;;3.29;100.00
13434;BME280;6789;47.678;9.158;2023-01-15T17:36:37;96412.56;;;3.31;100.00
13434;BME280;6789;47.678;9.158;2023-01-15T17:41:43;96416.25;;;3.22;100.00
13434;BME280;6789;47.678;9.158;2023-01-15T17:46:37;96414.66;;;3.21;100.00
13434;BME280;6789;47.678;9.158;2023-01-15T17:51:29;96405.22;;;3.14;100.00
13434;BME280;6789;47.678;9.158;2023-01-15T17:56:23;96403.19;;;3.09;100.00
13434;BME280;6789;47.678;9.158;2023-01-15T18:01:44;96395.06;;;3.12;100.00
13434;BME280;6789;47.678;9.158;2023-01-15T18:06:58;96398.44;;;3.13;100.00
13434;BME280;6789;47.678;9.158;2023-01-15T18:11:55;96395.81;;;3.06;100.00
13434;BME280;6789;47.678;9.158;2023-01-15T18:16:47;96392.59;;;3.04;100.00
13434;BME280;6789;47.678;9.158;2023-01-15T18:21:53;96398.75;;;3.03;99.50
13434;BME280;6789;47.678;9.158;2023-01-15T18:27:00;96395.97;;;3.05;99.13
13434;BME280;6789;47.678;9.158;2023-01-15T18:31:53;96388.28;;;3.11;98.69
13434;BME280;6789;47.678;9.158;2023-01-15T18:36:45;96397.53;;;2.99;98.34
13434;BME280;6789;47.678;9.158;2023-01-15T18:41:41;96391.91;;;2.96;98.95
13434;BME280;6789;47.678;9.158;2023-01-15T18:46:34;96396.03;;;2.90;99.34
13434;BME280;6789;47.678;9.158;2023-01-15T18:51:35;96384.28;;;2.88;99.49
13434;BME280;6789;47.678;9.158;2023-01-15T18:56:28;96371.00;;;2.77;99.12
13434;BME280;6789;47.678;9.158;2023-01-15T19:01:30;96369.06;;;2.79;99.66
13434;BME280;6789;47.678;9.158;2023-01-15T19:06:24;96370.03;;;2.78;99.54
13434;BME280;6789;47.678;9.158;2023-01-15T19:11:30;96351.03;;;2.71;99.26
13434;BME280;6789;47.678;9.158;2023-01-15T19:16:37;96348.22;;;2.66;98.57
13434;BME280;6789;47.678;9.158;2023-01-15T19:22:01;96341.81;;;2.62;99.35
13434;BME280;6789;47.678;9.158;2023-01-15T19:27:25;96337.00;;;2.59;99.12
13434;BME280;6789;47.678;9.158;2023-01-15T19:32:18;96341.06;;;2.47;99.24
13434;BME280;6789;47.678;9.158;2023-01-15T19:37:25;96330.81;;;2.39;100.00
13434;BME280;6789;47.678;9.158;2023-01-15T19:42:19;96328.97;;;2.33;100.00
13434;BME280;6789;47.678;9.158;2023-01-15T19:47:37;96323.94;;;2.46;100.00
13434;BME280;6789;47.678;9.158;2023-01-15T19:52:54;96310.53;;;2.57;99.33
13434;BME280;6789;47.678;9.158;2023-01-15T19:58:03;96299.66;;;2.68;98.55
13434;BME280;6789;47.678;9.158;2023-01-15T20:02:57;96289.03;;;2.83;96.35
13434;BME280;6789;47.678;9.158;2023-01-15T20:08:03;96268.75;;;2.87;97.13
13434;BME280;6789;47.678;9.158;2023-01-15T20:12:57;96265.97;;;2.88;96.12
13434;BME280;6789;47.678;9.158;2023-01-15T20:18:22;96261.63;;;2.89;95.67
13434;BME280;6789;47.678;9.158;2023-01-15T20:23:41;96246.13;;;2.95;94.86
13434;BME280;6789;47.678;9.158;2023-01-15T20:28:47;96235.59;;;2.97;94.25
13434;BME280;6789;47.678;9.158;2023-01-15T20:33:41;96241.56;;;2.97;94.12
13434;BME280;6789;47.678;9.158;2023-01-15T20:38:47;96234.56;;;2.98;93.04
13434;BME280;6789;47.678;9.158;2023-01-15T20:43:53;96223.88;;;3.07;92.83
13434;BME280;6789;47.678;9.158;2023-01-15T20:49:17;96220.78;;;3.25;91.13
13434;BME280;6789;47.678;9.158;2023-01-15T20:54:29;96220.78;;;3.18;91.45
13434;BME280;6789;47.678;9.158;2023-01-15T20:59:22;96217.88;;;3.00;92.37
13434;BME280;6789;47.678;9.158;2023-01-15T21:04:14;96208.78;;;2.83;92.85
13434;BME280;6789;47.678;9.158;2023-01-15T21:09:20;96207.78;;;2.78;92.54
13434;BME280;6789;47.678;9.158;2023-01-15T21:14:13;96202.19;;;2.75;92.63
13434;BME280;6789;47.678;9.158;2023-01-15T21:19:05;96196.34;;;2.66;92.56
13434;BME280;6789;47.678;9.158;2023-01-15T21:24:11;96177.81;;;2.63;92.65
13434;BME280;6789;47.678;9.158;2023-01-15T21:29:17;96155.88;;;2.59;94.24
13434;BME280;6789;47.678;9.158;2023-01-15T21:34:10;96147.47;;;2.50;93.07
13434;BME280;6789;47.678;9.158;2023-01-15T21:39:09;96142.72;;;2.54;93.77
13434;BME280;6789;47.678;9.158;2023-01-15T21:44:18;96136.09;;;2.79;91.94
13434;BME280;6789;47.678;9.158;2023-01-15T21:49:32;96130.63;;;2.94;90.69
13434;BME280;6789;47.678;9.158;2023-01-15T21:54:25;96111.06;;;2.92;90.49
13434;BME280;6789;47.678;9.158;2023-01-15T21:59:31;96106.72;;;2.99;90.30
13434;BME280;6789;47.678;9.158;2023-01-15T22:04:37;96102.78;;;3.03;88.79
13434;BME280;6789;47.678;9.158;2023-01-15T22:09:36;96078.09;;;3.13;88.97
13434;BME280;6789;47.678;9.158;2023-01-15T22:14:33;96070.97;;;3.28;88.43
13434;BME280;6789;47.678;9.158;2023-01-15T22:19:38;96072.19;;;3.39;87.39
13434;BME280;6789;47.678;9.158;2023-01-15T22:24:33;96054.69;;;3.47;86.81
13434;BME280;6789;47.678;9.158;2023-01-15T22:29:33;96051.47;;;3.45;86.62
13434;BME280;6789;47.678;9.158;2023-01-15T22:34:27;96041.13;;;3.52;86.66
13434;BME280;6789;47.678;9.158;2023-01-15T22:39:21;96032.94;;;3.54;85.55
13434;BME280;6789;47.678;9.158;2023-01-15T22:44:27;96020.38;;;3.45;86.83
13434;BME280;6789;47.678;9.158;2023-01-15T22:49:25;96013.41;;;3.39;86.88
13434;BME280;6789;47.678;9.158;2023-01-15T22:54:31;95996.47;;;3.43;86.01
13434;BME280;6789;47.678;9.158;2023-01-15T22:59:32;95990.28;;;3.51;85.59
13434;BME280;6789;47.678;9.158;2023-01-15T23:04:24;95990.69;;;3.48;85.34
13434;BME280;6789;47.678;9.158;2023-01-15T23:09:21;95983.13;;;3.46;85.05
13434;BME280;6789;47.678;9.158;2023-01-15T23:14:25;95974.16;;;3.42;85.78
13434;BME280;6789;47.678;9.158;2023-01-15T23:19:19;95960.22;;;3.56;85.24
13434;BME280;6789;47.678;9.158;2023-01-15T23:24:12;95961.38;;;3.86;83.63
13434;BME280;6789;47.678;9.158;2023-01-15T23:29:06;95954.78;;;3.90;83.34
13434;BME280;6789;47.678;9.158;2023-01-15T23:33:59;95948.19;;;3.87;83.30
13434;BME280;6789;47.678;9.158;2023-01-15T23:39:05;95931.66;;;3.82;83.89
13434;BME280;6789;47.678;9.158;2023-01-15T23:43:57;95936.22;;;4.06;81.47
13434;BME280;6789;47.678;9.158;2023-01-15T23:49:10;95930.19;;;4.18;80.77
13434;BME280;6789;47.678;9.158;2023-01-15T23:54:05;95917.81;;;4.14;80.98
13434;BME280;6789;47.678;9.158;2023-01-15T23:58:59;95906.91;;;3.99;81.85
